sensor_id;sensor_type;location;lat;lon;timestamp;P1;durP1;ratioP1;P2;durP2;ratioP2
25249;SDS011;13201;51.148;13.738;2023-02-11T00:00:15;27.70;;;10.35;;
25249;SDS011;13201;51.148;13.738;2023-02-11T00:02:41;25.03;;;11.07;;
25249;SDS011;13201;51.148;13.738;2023-02-11T00:05:08;22.77;;;10.25;;
25249;SDS011;13201;51.148;13.738;2023-02-11T00:07:34;24.90;;;10.23;;
25249;SDS011;13201;51.148;13.738;2023-02-11T00:10:00;25.02;;;9.95;;
25249;SDS011;13201;51.148;13.738;2023-02-11T00:12:28;23.63;;;10.45;;
25249;SDS011;13201;51.148;13.738;2023-02-11T00:14:54;26.58;;;10.40;;
25249;SDS011;13201;51.148;13.738;2023-02-11T00:17:20;23.85;;;10.23;;
25249;SDS011;13201;51.148;13.738;2023-02-11T00:19:52;24.30;;;10.00;;
25249;SDS011;13201;51.148;13.738;2023-02-11T00:22:18;27.15;;;10.60;;
25249;SDS011;13201;51.148;13.738;2023-02-11T00:24:44;24.90;;;10.43;;
25249;SDS011;13201;51.148;13.738;2023-02-11T00:27:10;25.35;;;10.35;;
25249;SDS011;13201;51.148;13.738;2023-02-11T00:29:36;24.88;;;10.38;;
25249;SDS011;13201;51.148;13.738;2023-02-11T00:32:02;19.40;;;9.82;;
25249;SDS011;13201;51.148;13.738;2023-02-11T00:34:32;25.85;;;10.15;;
25249;SDS011;13201;51.148;13.738;2023-02-11T00:37:02;25.17;;;9.80;;
25249;SDS011;13201;51.148;13.738;2023-02-11T00:39:28;19.23;;;9.98;;
25249;SDS011;13201;51.148;13.738;2023-02-11T00:41:55;21.63;;;9.85;;
25249;SDS011;13201;51.148;13.738;2023-02-11T00:44:21;30.30;;;11.27;;
25249;SDS011;13201;51.148;13.738;2023-02-11T00:46:47;21.17;;;9.88;;
25249;SDS011;13201;51.148;13.738;2023-02-11T00:49:12;23.67;;;9.98;;
25249;SDS011;13201;51.148;13.738;2023-02-11T00:51:39;24.33;;;10.32;;
25249;SDS011;13201;51.148;13.738;2023-02-11T00:54:04;26.10;;;10.82;;
25249;SDS011;13201;51.148;13.738;2023-02-11T00:56:30;24.87;;;9.90;;
25249;SDS011;13201;51.148;13.738;2023-02-11T00:58:56;22.25;;;9.82;;
25249;SDS011;13201;51.148;13.738;2023-02-11T01:01:22;23.35;;;10.15;;
25249;SDS011;13201;51.148;13.738;2023-02-11T01:03:48;28.77;;;10.90;;
25249;SDS011;13201;51.148;13.738;2023-02-11T01:31:04;24.42;;;11.10;;
25249;SDS011;13201;51.148;13.738;2023-02-11T01:33:30;24.73;;;12.13;;
25249;SDS011;13201;51.148;13.738;2023-02-11T01:35:59;24.10;;;11.25;;
25249;SDS011;13201;51.148;13.738;2023-02-11T01:38:26;22.60;;;10.45;;
25249;SDS011;13201;51.148;13.738;2023-02-11T01:43:19;25.33;;;10.43;;
25249;SDS011;13201;51.148;13.738;2023-02-11T01:48:12;23.27;;;10.35;;
25249;SDS011;13201;51.148;13.738;2023-02-11T01:50:44;22.73;;;10.85;;
25249;SDS011;13201;51.148;13.738;2023-02-11T01:53:13;20.83;;;10.18;;
25249;SDS011;13201;51.148;13.738;2023-02-11T01:55:58;25.10;;;10.57;;
25249;SDS011;13201;51.148;13.738;2023-02-11T01:58:43;23.60;;;10.02;;
25249;SDS011;13201;51.148;13.738;2023-02-11T02:01:12;23.92;;;10.05;;
25249;SDS011;13201;51.148;13.738;2023-02-11T02:03:42;22.92;;;10.70;;
25249;SDS011;13201;51.148;13.738;2023-02-11T02:06:54;25.10;;;10.65;;
25249;SDS011;13201;51.148;13.738;2023-02-11T02:09:03;22.52;;;10.15;;
25249;SDS011;13201;51.148;13.738;2023-02-11T02:11:35;23.08;;;10.90;;
25249;SDS011;13201;51.148;13.738;2023-02-11T02:14:01;28.45;;;10.75;;
25249;SDS011;13201;51.148;13.738;2023-02-11T02:16:31;23.80;;;10.63;;
25249;SDS011;13201;51.148;13.738;2023-02-11T02:33:44;26.45;;;10.95;;
25249;SDS011;13201;51.148;13.738;2023-02-11T02:36:14;22.20;;;10.63;;
25249;SDS011;13201;51.148;13.738;2023-02-11T02:38:52;25.15;;;10.55;;
25249;SDS011;13201;51.148;13.738;2023-02-11T02:41:32;23.05;;;10.93;;
25249;SDS011;13201;51.148;13.738;2023-02-11T02:43:59;22.17;;;10.30;;
25249;SDS011;13201;51.148;13.738;2023-02-11T02:46:26;23.08;;;10.65;;
25249;SDS011;13201;51.148;13.738;2023-02-11T02:48:54;26.00;;;10.52;;
25249;SDS011;13201;51.148;13.738;2023-02-11T02:56:53;24.65;;;10.93;;
25249;SDS011;13201;51.148;13.738;2023-02-11T03:02:07;22.13;;;10.50;;
25249;SDS011;13201;51.148;13.738;2023-02-11T03:07:19;19.85;;;9.90;;
25249;SDS011;13201;51.148;13.738;2023-02-11T03:09:58;28.90;;;11.25;;
25249;SDS011;13201;51.148;13.738;2023-02-11T03:12:34;24.45;;;10.95;;
25249;SDS011;13201;51.148;13.738;2023-02-11T03:15:02;25.55;;;11.48;;
25249;SDS011;13201;51.148;13.738;2023-02-11T03:17:30;30.33;;;11.38;;
25249;SDS011;13201;51.148;13.738;2023-02-11T03:19:59;26.58;;;11.35;;
25249;SDS011;13201;51.148;13.738;2023-02-11T03:22:31;24.05;;;10.70;;
25249;SDS011;13201;51.148;13.738;2023-02-11T03:25:01;23.88;;;10.63;;
25249;SDS011;13201;51.148;13.738;2023-02-11T03:30:20;24.42;;;10.27;;
25249;SDS011;13201;51.148;13.738;2023-02-11T03:32:55;25.90;;;10.73;;
25249;SDS011;13201;51.148;13.738;2023-02-11T03:35:26;22.40;;;10.93;;
25249;SDS011;13201;51.148;13.738;2023-02-11T03:38:04;24.48;;;10.55;;
25249;SDS011;13201;51.148;13.738;2023-02-11T03:40:40;21.98;;;10.60;;
25249;SDS011;13201;51.148;13.738;2023-02-11T03:43:43;22.25;;;10.35;;
25249;SDS011;13201;51.148;13.738;2023-02-11T03:46:04;23.17;;;10.90;;
25249;SDS011;13201;51.148;13.738;2023-02-11T03:48:38;22.88;;;11.23;;
25249;SDS011;13201;51.148;13.738;2023-02-11T03:51:08;26.52;;;11.18;;
25249;SDS011;13201;51.148;13.738;2023-02-11T03:53:37;25.63;;;10.82;;
25249;SDS011;13201;51.148;13.738;2023-02-11T03:56:05;26.08;;;11.88;;
25249;SDS011;13201;51.148;13.738;2023-02-11T03:58:35;23.80;;;10.88;;
25249;SDS011;13201;51.148;13.738;2023-02-11T04:01:01;24.10;;;11.27;;
25249;SDS011;13201;51.148;13.738;2023-02-11T04:03:29;26.63;;;11.90;;
25249;SDS011;13201;51.148;13.738;2023-02-11T04:05:56;27.38;;;12.52;;
25249;SDS011;13201;51.148;13.738;2023-02-11T04:08:22;31.52;;;12.88;;
25249;SDS011;13201;51.148;13.738;2023-02-11T04:10:48;26.83;;;11.43;;
25249;SDS011;13201;51.148;13.738;2023-02-11T04:13:14;22.88;;;10.95;;
25249;SDS011;13201;51.148;13.738;2023-02-11T04:15:39;26.85;;;11.40;;
25249;SDS011;13201;51.148;13.738;2023-02-11T04:18:05;31.60;;;12.00;;
25249;SDS011;13201;51.148;13.738;2023-02-11T04:20:31;25.13;;;11.32;;
25249;SDS011;13201;51.148;13.738;2023-02-11T04:22:56;23.52;;;11.13;;
25249;SDS011;13201;51.148;13.738;2023-02-11T04:25:22;26.60;;;11.38;;
25249;SDS011;13201;51.148;13.738;2023-02-11T04:27:47;27.25;;;11.57;;
25249;SDS011;13201;51.148;13.738;2023-02-11T04:30:13;25.80;;;11.85;;
25249;SDS011;13201;51.148;13.738;2023-02-11T04:32:39;24.10;;;11.82;;
25249;SDS011;13201;51.148;13.738;2023-02-11T04:35:05;30.40;;;12.23;;
25249;SDS011;13201;51.148;13.738;2023-02-11T04:37:31;19.65;;;9.07;;
25249;SDS011;13201;51.148;13.738;2023-02-11T04:39:56;20.50;;;10.52;;
25249;SDS011;13201;51.148;13.738;2023-02-11T04:42:22;25.80;;;12.55;;
25249;SDS011;13201;51.148;13.738;2023-02-11T04:44:48;25.92;;;11.63;;
25249;SDS011;13201;51.148;13.738;2023-02-11T04:47:13;25.00;;;11.35;;
25249;SDS011;13201;51.148;13.738;2023-02-11T04:49:39;28.20;;;12.43;;
25249;SDS011;13201;51.148;13.738;2023-02-11T04:52:05;27.20;;;11.77;;
25249;SDS011;13201;51.148;13.738;2023-02-11T04:54:31;23.95;;;11.40;;
25249;SDS011;13201;51.148;13.738;2023-02-11T04:56:57;30.77;;;12.10;;
25249;SDS011;13201;51.148;13.738;2023-02-11T04:59:22;25.00;;;11.27;;
25249;SDS011;13201;51.148;13.738;2023-02-11T05:01:48;26.17;;;11.35;;
25249;SDS011;13201;51.148;13.738;2023-02-11T05:04:14;25.33;;;11.02;;
25249;SDS011;13201;51.148;13.738;2023-02-11T05:06:40;27.77;;;12.25;;
25249;SDS011;13201;51.148;13.738;2023-02-11T05:09:06;21.95;;;11.48;;
25249;SDS011;13201;51.148;13.738;2023-02-11T05:11:34;27.67;;;11.70;;
25249;SDS011;13201;51.148;13.738;2023-02-11T05:14:00;25.20;;;11.15;;
25249;SDS011;13201;51.148;13.738;2023-02-11T05:16:26;25.73;;;11.85;;
25249;SDS011;13201;51.148;13.738;2023-02-11T05:18:52;27.67;;;11.98;;
25249;SDS011;13201;51.148;13.738;2023-02-11T05:21:19;27.52;;;11.98;;
25249;SDS011;13201;51.148;13.738;2023-02-11T05:23:45;28.50;;;12.48;;
25249;SDS011;13201;51.148;13.738;2023-02-11T05:26:11;27.23;;;12.43;;
25249;SDS011;13201;51.148;13.738;2023-02-11T05:28:38;25.15;;;11.88;;
25249;SDS011;13201;51.148;13.738;2023-02-11T05:31:04;26.52;;;12.90;;
25249;SDS011;13201;51.148;13.738;2023-02-11T05:33:30;28.65;;;12.15;;
25249;SDS011;13201;51.148;13.738;2023-02-11T05:35:59;24.80;;;12.15;;
25249;SDS011;13201;51.148;13.738;2023-02-11T05:38:25;28.70;;;11.65;;
25249;SDS011;13201;51.148;13.738;2023-02-11T05:40:51;27.27;;;11.07;;
25249;SDS011;13201;51.148;13.738;2023-02-11T05:43:17;25.02;;;11.73;;
25249;SDS011;13201;51.148;13.738;2023-02-11T05:45:42;28.45;;;11.75;;
25249;SDS011;13201;51.148;13.738;2023-02-11T05:48:08;28.88;;;12.60;;
25249;SDS011;13201;51.148;13.738;2023-02-11T05:50:34;30.15;;;12.02;;
25249;SDS011;13201;51.148;13.738;2023-02-11T05:52:59;28.10;;;11.32;;
25249;SDS011;13201;51.148;13.738;2023-02-11T05:55:25;30.83;;;11.95;;
25249;SDS011;13201;51.148;13.738;2023-02-11T05:57:51;25.00;;;10.77;;
25249;SDS011;13201;51.148;13.738;2023-02-11T06:00:16;27.95;;;12.05;;
25249;SDS011;13201;51.148;13.738;2023-02-11T06:02:42;26.65;;;12.00;;
25249;SDS011;13201;51.148;13.738;2023-02-11T06:05:08;26.25;;;11.68;;
25249;SDS011;13201;51.148;13.738;2023-02-11T06:07:34;28.37;;;11.73;;
25249;SDS011;13201;51.148;13.738;2023-02-11T06:10:00;26.85;;;11.82;;
25249;SDS011;13201;51.148;13.738;2023-02-11T06:12:25;30.55;;;12.60;;
25249;SDS011;13201;51.148;13.738;2023-02-11T06:14:51;25.85;;;12.48;;
25249;SDS011;13201;51.148;13.738;2023-02-11T06:17:17;28.10;;;11.80;;
25249;SDS011;13201;51.148;13.738;2023-02-11T06:19:42;26.95;;;12.20;;
25249;SDS011;13201;51.148;13.738;2023-02-11T06:22:08;24.27;;;11.55;;
25249;SDS011;13201;51.148;13.738;2023-02-11T06:24:34;26.20;;;12.02;;
25249;SDS011;13201;51.148;13.738;2023-02-11T06:27:01;31.65;;;13.40;;
25249;SDS011;13201;51.148;13.738;2023-02-11T06:29:28;29.15;;;12.77;;
25249;SDS011;13201;51.148;13.738;2023-02-11T06:31:53;25.10;;;11.32;;
25249;SDS011;13201;51.148;13.738;2023-02-11T06:34:19;28.30;;;12.43;;
25249;SDS011;13201;51.148;13.738;2023-02-11T06:36:45;27.48;;;12.15;;
25249;SDS011;13201;51.148;13.738;2023-02-11T06:39:11;22.95;;;11.45;;
25249;SDS011;13201;51.148;13.738;2023-02-11T06:41:37;27.88;;;12.98;;
25249;SDS011;13201;51.148;13.738;2023-02-11T06:44:03;26.00;;;11.88;;
25249;SDS011;13201;51.148;13.738;2023-02-11T06:46:29;26.73;;;13.00;;
25249;SDS011;13201;51.148;13.738;2023-02-11T06:48:55;28.73;;;12.68;;
25249;SDS011;13201;51.148;13.738;2023-02-11T06:51:21;26.80;;;12.50;;
25249;SDS011;13201;51.148;13.738;2023-02-11T06:53:46;24.90;;;11.50;;
25249;SDS011;13201;51.148;13.738;2023-02-11T06:56:16;26.67;;;12.00;;
25249;SDS011;13201;51.148;13.738;2023-02-11T06:58:44;28.88;;;12.77;;
25249;SDS011;13201;51.148;13.738;2023-02-11T07:01:12;26.95;;;11.70;;
25249;SDS011;13201;51.148;13.738;2023-02-11T07:03:40;26.13;;;12.25;;
25249;SDS011;13201;51.148;13.738;2023-02-11T07:06:07;25.33;;;11.75;;
25249;SDS011;13201;51.148;13.738;2023-02-11T07:08:36;26.20;;;11.52;;
25249;SDS011;13201;51.148;13.738;2023-02-11T07:11:14;25.50;;;11.23;;
25249;SDS011;13201;51.148;13.738;2023-02-11T07:13:42;32.10;;;12.52;;
25249;SDS011;13201;51.148;13.738;2023-02-11T07:16:09;27.50;;;12.38;;
25249;SDS011;13201;51.148;13.738;2023-02-11T07:18:36;28.35;;;11.95;;
25249;SDS011;13201;51.148;13.738;2023-02-11T07:21:03;27.38;;;11.70;;
25249;SDS011;13201;51.148;13.738;2023-02-11T07:23:30;28.92;;;12.35;;
25249;SDS011;13201;51.148;13.738;2023-02-11T07:25:56;24.97;;;12.57;;
25249;SDS011;13201;51.148;13.738;2023-02-11T07:28:21;26.83;;;12.25;;
25249;SDS011;13201;51.148;13.738;2023-02-11T07:30:47;28.15;;;12.07;;
25249;SDS011;13201;51.148;13.738;2023-02-11T07:33:13;29.02;;;12.57;;
25249;SDS011;13201;51.148;13.738;2023-02-11T07:35:38;25.50;;;11.85;;
25249;SDS011;13201;51.148;13.738;2023-02-11T07:38:04;28.98;;;12.57;;
25249;SDS011;13201;51.148;13.738;2023-02-11T07:40:30;25.60;;;11.30;;
25249;SDS011;13201;51.148;13.738;2023-02-11T07:42:56;26.63;;;11.32;;
25249;SDS011;13201;51.148;13.738;2023-02-11T07:45:21;25.17;;;12.15;;
25249;SDS011;13201;51.148;13.738;2023-02-11T07:47:48;27.23;;;12.43;;
25249;SDS011;13201;51.148;13.738;2023-02-11T07:50:15;28.35;;;12.30;;
25249;SDS011;13201;51.148;13.738;2023-02-11T07:52:41;28.65;;;12.18;;
25249;SDS011;13201;51.148;13.738;2023-02-11T07:55:07;28.00;;;12.00;;
25249;SDS011;13201;51.148;13.738;2023-02-11T07:57:34;28.45;;;12.98;;
25249;SDS011;13201;51.148;13.738;2023-02-11T08:00:00;23.95;;;11.20;;
25249;SDS011;13201;51.148;13.738;2023-02-11T08:02:25;25.35;;;11.23;;
25249;SDS011;13201;51.148;13.738;2023-02-11T08:04:51;23.58;;;11.73;;
25249;SDS011;13201;51.148;13.738;2023-02-11T08:07:17;24.02;;;11.85;;
25249;SDS011;13201;51.148;13.738;2023-02-11T08:09:43;28.58;;;11.40;;
25249;SDS011;13201;51.148;13.738;2023-02-11T08:12:09;25.95;;;11.15;;
25249;SDS011;13201;51.148;13.738;2023-02-11T08:14:35;28.10;;;12.60;;
25249;SDS011;13201;51.148;13.738;2023-02-11T08:17:02;27.33;;;12.00;;
25249;SDS011;13201;51.148;13.738;2023-02-11T08:19:27;26.13;;;10.83;;
25249;SDS011;13201;51.148;13.738;2023-02-11T08:21:54;29.95;;;11.55;;
25249;SDS011;13201;51.148;13.738;2023-02-11T08:24:21;32.28;;;12.43;;
25249;SDS011;13201;51.148;13.738;2023-02-11T08:26:47;28.33;;;12.50;;
25249;SDS011;13201;51.148;13.738;2023-02-11T08:29:13;26.90;;;11.90;;
25249;SDS011;13201;51.148;13.738;2023-02-11T08:31:41;25.05;;;11.82;;
25249;SDS011;13201;51.148;13.738;2023-02-11T08:34:09;29.13;;;12.13;;
25249;SDS011;13201;51.148;13.738;2023-02-11T08:36:38;24.17;;;11.55;;
25249;SDS011;13201;51.148;13.738;2023-02-11T08:39:08;21.38;;;10.02;;
25249;SDS011;13201;51.148;13.738;2023-02-11T08:41:37;25.58;;;11.43;;
25249;SDS011;13201;51.148;13.738;2023-02-11T08:44:03;23.58;;;10.95;;
25249;SDS011;13201;51.148;13.738;2023-02-11T08:46:29;25.00;;;11.27;;
25249;SDS011;13201;51.148;13.738;2023-02-11T08:48:55;28.80;;;12.13;;
25249;SDS011;13201;51.148;13.738;2023-02-11T08:51:21;27.13;;;12.27;;
25249;SDS011;13201;51.148;13.738;2023-02-11T08:53:49;29.95;;;13.27;;
25249;SDS011;13201;51.148;13.738;2023-02-11T08:56:16;27.00;;;12.07;;
25249;SDS011;13201;51.148;13.738;2023-02-11T08:58:43;29.38;;;11.55;;
25249;SDS011;13201;51.148;13.738;2023-02-11T09:01:10;28.67;;;12.32;;
25249;SDS011;13201;51.148;13.738;2023-02-11T09:03:41;26.52;;;11.80;;
25249;SDS011;13201;51.148;13.738;2023-02-11T09:06:08;28.02;;;12.05;;
25249;SDS011;13201;51.148;13.738;2023-02-11T09:08:36;24.33;;;11.40;;
25249;SDS011;13201;51.148;13.738;2023-02-11T09:11:02;25.83;;;12.80;;
25249;SDS011;13201;51.148;13.738;2023-02-11T09:13:29;24.48;;;11.70;;
25249;SDS011;13201;51.148;13.738;2023-02-11T09:15:56;27.45;;;11.68;;
25249;SDS011;13201;51.148;13.738;2023-02-11T09:18:22;29.63;;;12.40;;
25249;SDS011;13201;51.148;13.738;2023-02-11T09:20:48;30.60;;;12.10;;
25249;SDS011;13201;51.148;13.738;2023-02-11T09:23:13;27.35;;;12.10;;
25249;SDS011;13201;51.148;13.738;2023-02-11T09:25:39;27.02;;;12.07;;
25249;SDS011;13201;51.148;13.738;2023-02-11T09:28:06;22.17;;;11.77;;
25249;SDS011;13201;51.148;13.738;2023-02-11T09:30:32;26.52;;;12.20;;
25249;SDS011;13201;51.148;13.738;2023-02-11T09:33:00;28.02;;;12.50;;
25249;SDS011;13201;51.148;13.738;2023-02-11T09:35:26;23.63;;;11.20;;
25249;SDS011;13201;51.148;13.738;2023-02-11T09:37:52;28.13;;;12.48;;
25249;SDS011;13201;51.148;13.738;2023-02-11T09:40:18;26.92;;;11.93;;
25249;SDS011;13201;51.148;13.738;2023-02-11T09:42:50;26.40;;;12.18;;
25249;SDS011;13201;51.148;13.738;2023-02-11T09:45:28;26.17;;;12.20;;
25249;SDS011;13201;51.148;13.738;2023-02-11T09:47:59;27.48;;;12.43;;
25249;SDS011;13201;51.148;13.738;2023-02-11T09:55:47;27.02;;;11.70;;
25249;SDS011;13201;51.148;13.738;2023-02-11T09:58:21;27.03;;;11.90;;
25249;SDS011;13201;51.148;13.738;2023-02-11T10:25:55;26.13;;;11.15;;
25249;SDS011;13201;51.148;13.738;2023-02-11T10:28:26;27.67;;;11.95;;
25249;SDS011;13201;51.148;13.738;2023-02-11T10:31:00;32.15;;;11.95;;
25249;SDS011;13201;51.148;13.738;2023-02-11T10:33:43;26.25;;;11.93;;
25249;SDS011;13201;51.148;13.738;2023-02-11T10:36:10;26.85;;;11.85;;
25249;SDS011;13201;51.148;13.738;2023-02-11T10:38:37;26.60;;;11.90;;
25249;SDS011;13201;51.148;13.738;2023-02-11T10:41:03;26.52;;;11.82;;
25249;SDS011;13201;51.148;13.738;2023-02-11T10:43:30;26.60;;;11.73;;
25249;SDS011;13201;51.148;13.738;2023-02-11T10:45:57;21.95;;;11.52;;
25249;SDS011;13201;51.148;13.738;2023-02-11T10:51:20;28.17;;;12.27;;
25249;SDS011;13201;51.148;13.738;2023-02-11T10:56:28;26.77;;;12.00;;
25249;SDS011;13201;51.148;13.738;2023-02-11T10:59:00;27.02;;;11.65;;
25249;SDS011;13201;51.148;13.738;2023-02-11T11:01:39;26.50;;;12.15;;
25249;SDS011;13201;51.148;13.738;2023-02-11T11:07:12;27.55;;;12.25;;
25249;SDS011;13201;51.148;13.738;2023-02-11T11:14:59;24.00;;;11.45;;
25249;SDS011;13201;51.148;13.738;2023-02-11T11:17:46;25.65;;;11.90;;
25249;SDS011;13201;51.148;13.738;2023-02-11T11:20:25;25.80;;;11.88;;
25249;SDS011;13201;51.148;13.738;2023-02-11T11:23:38;24.85;;;11.75;;
25249;SDS011;13201;51.148;13.738;2023-02-11T11:25:44;28.25;;;11.85;;
25249;SDS011;13201;51.148;13.738;2023-02-11T11:28:24;26.35;;;11.55;;
25249;SDS011;13201;51.148;13.738;2023-02-11T11:30:52;28.90;;;12.65;;
25249;SDS011;13201;51.148;13.738;2023-02-11T11:33:23;28.92;;;12.13;;
25249;SDS011;13201;51.148;13.738;2023-02-11T11:38:30;24.77;;;11.80;;
25249;SDS011;13201;51.148;13.738;2023-02-11T11:43:57;23.27;;;11.60;;
25249;SDS011;13201;51.148;13.738;2023-02-11T11:46:42;22.73;;;11.37;;
25249;SDS011;13201;51.148;13.738;2023-02-11T11:49:19;23.55;;;11.23;;
25249;SDS011;13201;51.148;13.738;2023-02-11T11:55:05;26.73;;;11.30;;
25249;SDS011;13201;51.148;13.738;2023-02-11T11:57:50;22.80;;;11.23;;
25249;SDS011;13201;51.148;13.738;2023-02-11T12:00:18;25.23;;;11.25;;
25249;SDS011;13201;51.148;13.738;2023-02-11T12:08:44;29.95;;;12.05;;
25249;SDS011;13201;51.148;13.738;2023-02-11T12:11:25;26.40;;;11.98;;
25249;SDS011;13201;51.148;13.738;2023-02-11T12:27:22;22.02;;;11.35;;
25249;SDS011;13201;51.148;13.738;2023-02-11T12:50:07;24.38;;;10.52;;
25249;SDS011;13201;51.148;13.738;2023-02-11T12:52:51;22.13;;;10.68;;
25249;SDS011;13201;51.148;13.738;2023-02-11T12:55:27;19.83;;;10.20;;
25249;SDS011;13201;51.148;13.738;2023-02-11T12:58:00;21.27;;;11.10;;
25249;SDS011;13201;51.148;13.738;2023-02-11T13:00:42;24.83;;;11.15;;
25249;SDS011;13201;51.148;13.738;2023-02-11T13:03:23;24.85;;;11.05;;
25249;SDS011;13201;51.148;13.738;2023-02-11T13:05:57;23.45;;;10.63;;
25249;SDS011;13201;51.148;13.738;2023-02-11T13:08:42;21.13;;;9.70;;
25249;SDS011;13201;51.148;13.738;2023-02-11T13:16:16;26.05;;;12.15;;
25249;SDS011;13201;51.148;13.738;2023-02-11T13:18:55;19.85;;;10.40;;
25249;SDS011;13201;51.148;13.738;2023-02-11T13:21:41;22.98;;;10.38;;
25249;SDS011;13201;51.148;13.738;2023-02-11T13:24:43;19.48;;;9.93;;
25249;SDS011;13201;51.148;13.738;2023-02-11T13:37:53;23.92;;;10.32;;
25249;SDS011;13201;51.148;13.738;2023-02-11T13:40:22;18.85;;;10.02;;
25249;SDS011;13201;51.148;13.738;2023-02-11T13:43:18;24.38;;;10.88;;
25249;SDS011;13201;51.148;13.738;2023-02-11T13:45:47;22.85;;;11.10;;
25249;SDS011;13201;51.148;13.738;2023-02-11T13:48:22;25.60;;;11.13;;
25249;SDS011;13201;51.148;13.738;2023-02-11T13:50:54;20.63;;;9.90;;
25249;SDS011;13201;51.148;13.738;2023-02-11T13:53:23;25.23;;;11.30;;
25249;SDS011;13201;51.148;13.738;2023-02-11T13:55:50;22.02;;;10.05;;
25249;SDS011;13201;51.148;13.738;2023-02-11T14:00:53;24.30;;;11.20;;
25249;SDS011;13201;51.148;13.738;2023-02-11T14:09:04;25.48;;;11.57;;
25249;SDS011;13201;51.148;13.738;2023-02-11T14:17:30;24.83;;;11.05;;
25249;SDS011;13201;51.148;13.738;2023-02-11T14:19:58;21.30;;;10.38;;
25249;SDS011;13201;51.148;13.738;2023-02-11T14:22:44;20.48;;;9.93;;
25249;SDS011;13201;51.148;13.738;2023-02-11T14:25:21;19.13;;;9.73;;
25249;SDS011;13201;51.148;13.738;2023-02-11T14:35:43;22.30;;;10.23;;
25249;SDS011;13201;51.148;13.738;2023-02-11T14:43:41;21.88;;;9.57;;
25249;SDS011;13201;51.148;13.738;2023-02-11T14:46:11;20.40;;;10.63;;
25249;SDS011;13201;51.148;13.738;2023-02-11T14:48:42;19.23;;;9.48;;
25249;SDS011;13201;51.148;13.738;2023-02-11T14:51:12;23.08;;;9.45;;
25249;SDS011;13201;51.148;13.738;2023-02-11T14:53:45;20.38;;;9.45;;
25249;SDS011;13201;51.148;13.738;2023-02-11T14:56:31;20.40;;;9.32;;
25249;SDS011;13201;51.148;13.738;2023-02-11T14:58:58;20.23;;;9.55;;
25249;SDS011;13201;51.148;13.738;2023-02-11T15:04:03;20.63;;;9.07;;
25249;SDS011;13201;51.148;13.738;2023-02-11T15:06:31;21.52;;;10.02;;
25249;SDS011;13201;51.148;13.738;2023-02-11T15:09:04;20.77;;;10.00;;
25249;SDS011;13201;51.148;13.738;2023-02-11T15:12:19;25.15;;;10.50;;
25249;SDS011;13201;51.148;13.738;2023-02-11T15:14:50;19.83;;;9.75;;
25249;SDS011;13201;51.148;13.738;2023-02-11T15:17:21;18.88;;;9.95;;
25249;SDS011;13201;51.148;13.738;2023-02-11T15:19:50;21.33;;;10.82;;
25249;SDS011;13201;51.148;13.738;2023-02-11T15:22:28;20.17;;;10.23;;
25249;SDS011;13201;51.148;13.738;2023-02-11T15:24:58;20.95;;;10.00;;
25249;SDS011;13201;51.148;13.738;2023-02-11T15:32:47;24.25;;;10.52;;
25249;SDS011;13201;51.148;13.738;2023-02-11T15:35:33;20.15;;;9.57;;
25249;SDS011;13201;51.148;13.738;2023-02-11T15:38:02;21.90;;;11.00;;
25249;SDS011;13201;51.148;13.738;2023-02-11T15:40:29;22.05;;;10.38;;
25249;SDS011;13201;51.148;13.738;2023-02-11T15:43:01;20.33;;;9.45;;
25249;SDS011;13201;51.148;13.738;2023-02-11T15:45:29;17.55;;;9.35;;
25249;SDS011;13201;51.148;13.738;2023-02-11T15:50:40;20.02;;;9.90;;
25249;SDS011;13201;51.148;13.738;2023-02-11T15:55:45;19.40;;;9.45;;
25249;SDS011;13201;51.148;13.738;2023-02-11T16:00:44;19.52;;;9.13;;
25249;SDS011;13201;51.148;13.738;2023-02-11T16:03:22;22.20;;;9.73;;
25249;SDS011;13201;51.148;13.738;2023-02-11T16:05:52;18.70;;;8.82;;
25249;SDS011;13201;51.148;13.738;2023-02-11T16:08:21;20.23;;;9.20;;
25249;SDS011;13201;51.148;13.738;2023-02-11T16:11:00;19.35;;;9.70;;
25249;SDS011;13201;51.148;13.738;2023-02-11T16:13:32;16.48;;;8.60;;
25249;SDS011;13201;51.148;13.738;2023-02-11T16:16:19;23.30;;;10.02;;
25249;SDS011;13201;51.148;13.738;2023-02-11T16:18:49;18.73;;;9.18;;
25249;SDS011;13201;51.148;13.738;2023-02-11T16:21:16;18.75;;;8.77;;
25249;SDS011;13201;51.148;13.738;2023-02-11T16:23:51;19.58;;;9.30;;
25249;SDS011;13201;51.148;13.738;2023-02-11T16:26:28;19.70;;;9.32;;
25249;SDS011;13201;51.148;13.738;2023-02-11T16:29:13;23.05;;;9.98;;
25249;SDS011;13201;51.148;13.738;2023-02-11T16:31:42;18.88;;;8.68;;
25249;SDS011;13201;51.148;13.738;2023-02-11T16:36:42;20.67;;;8.98;;
25249;SDS011;13201;51.148;13.738;2023-02-11T16:39:09;21.70;;;10.10;;
25249;SDS011;13201;51.148;13.738;2023-02-11T16:41:35;18.90;;;9.82;;
25249;SDS011;13201;51.148;13.738;2023-02-11T16:44:01;18.92;;;9.02;;
25249;SDS011;13201;51.148;13.738;2023-02-11T16:46:26;17.10;;;8.95;;
25249;SDS011;13201;51.148;13.738;2023-02-11T16:48:55;19.38;;;9.30;;
25249;SDS011;13201;51.148;13.738;2023-02-11T16:51:25;19.10;;;8.90;;
25249;SDS011;13201;51.148;13.738;2023-02-11T16:53:50;18.45;;;9.45;;
25249;SDS011;13201;51.148;13.738;2023-02-11T16:56:16;23.25;;;9.80;;
25249;SDS011;13201;51.148;13.738;2023-02-11T16:58:43;22.45;;;9.75;;
25249;SDS011;13201;51.148;13.738;2023-02-11T17:01:09;18.27;;;9.00;;
25249;SDS011;13201;51.148;13.738;2023-02-11T17:03:35;16.30;;;8.57;;
25249;SDS011;13201;51.148;13.738;2023-02-11T17:06:08;19.60;;;9.60;;
25249;SDS011;13201;51.148;13.738;2023-02-11T17:08:35;21.88;;;10.10;;
25249;SDS011;13201;51.148;13.738;2023-02-11T17:11:01;18.80;;;9.82;;
25249;SDS011;13201;51.148;13.738;2023-02-11T17:13:27;18.90;;;9.60;;
25249;SDS011;13201;51.148;13.738;2023-02-11T17:15:53;17.80;;;9.20;;
25249;SDS011;13201;51.148;13.738;2023-02-11T17:18:19;21.58;;;10.18;;
25249;SDS011;13201;51.148;13.738;2023-02-11T17:20:44;18.25;;;9.50;;
25249;SDS011;13201;51.148;13.738;2023-02-11T17:23:10;18.63;;;9.43;;
25249;SDS011;13201;51.148;13.738;2023-02-11T17:25:36;20.70;;;9.63;;
25249;SDS011;13201;51.148;13.738;2023-02-11T17:28:03;20.47;;;9.70;;
25249;SDS011;13201;51.148;13.738;2023-02-11T17:30:29;19.33;;;9.20;;
25249;SDS011;13201;51.148;13.738;2023-02-11T17:32:55;18.95;;;9.27;;
25249;SDS011;13201;51.148;13.738;2023-02-11T17:35:21;21.95;;;10.48;;
25249;SDS011;13201;51.148;13.738;2023-02-11T17:37:46;20.70;;;9.57;;
25249;SDS011;13201;51.148;13.738;2023-02-11T17:40:12;22.40;;;10.07;;
25249;SDS011;13201;51.148;13.738;2023-02-11T17:42:38;20.88;;;10.15;;
25249;SDS011;13201;51.148;13.738;2023-02-11T17:45:04;23.75;;;10.25;;
25249;SDS011;13201;51.148;13.738;2023-02-11T17:47:30;23.90;;;10.40;;
25249;SDS011;13201;51.148;13.738;2023-02-11T17:49:56;23.58;;;9.90;;
25249;SDS011;13201;51.148;13.738;2023-02-11T17:52:22;23.60;;;10.68;;
25249;SDS011;13201;51.148;13.738;2023-02-11T17:54:49;21.60;;;10.13;;